Terminal Aerodrome Forecast
Issued by NWS Raleigh/Durham, NC

Home | Current Version | Previous Version | Text Only | Print | Product List | Glossary On
Versions: 1 2 3 4 5 6 7 8 9 10 11 12 13 14 15
000
FTUS42 KRAH 231709 AAC
TAFGSO
TAF AMD
KGSO 231709Z 2317/2412 10009G19KT P6SM OVC050
      TEMPO 2317/2319 P6SM -RA OVC035
     FM231900 08012G20KT P6SM -RA OVC012
      TEMPO 2319/2321 3SM -RA OVC007
     FM232100 08014KT 3SM -RA BR OVC007
     FM240000 09018G28KT 1 1/2SM -RA BR OVC004
     FM240900 06020G30KT 4SM -RA BR OVC004=

USA.gov is the U.S. government's official web portal to all federal, state and local government web resources and services.